Portada
METAR-TAF:

METAR-TAF

Aeropuertos :

Aeropuerto de Podgorica

Podgorica, Montenegro

latitud: 42-26N, longitud: 019-17E, altitud: 53 m

Observación

El informe se hizo hace 15 minutos, a las 08:30 UTC
Viento 3 kt del noreste
Temperatura 8°C
Humedad 42%
Presión 1026 hPa
Visibilidad 10 km o más
sin nubes por debajo de 1500 m y sin presencia de cumulonimbus.

METAR: LYPG 070830Z 05003KT CAVOK 08/M04 Q1026 NOSIG

Hora: 09:45 (08:45 UTC)

Pronóstico

El informe se hizo hace 3 horas y 45 minutos, a las 05:00 UTC
Pronóstico válido del 07 a las 06 UTC al 08 a las 06 UTC
Viento 8 kt del norte
Visibilidad 10 km o más
Escasas nubes a una altura de 4000 ft
Nubes dispersas a una altura de 7000 ft

TAF: LYPG 070500Z 0706/0806 36008KT 9999 FEW040 SCT070 TX13/0713Z TN01/0706Z

Observaciones y pronósticos meteorológicos de más de 4000 aeropuertos (mensajes METAR y TAF).

Los puntos amarillos y rojos representan las estaciones disponibles.

Ponga el ratón en el punto deseado para ver el nombre de la estación.

Haga clic para ver las observaciones y los pronósticos meteorológicos.

Para cambiar el mapa : haga clic en los botones verdes con una cruz de color negro para hacer un zoom, en el botón verde con un guión para alejar o en las flechas verdes para mapas adyacentes.


METAR-TAF: